ADDS METAR Data INFO
IDs: Format: Raw Decoded Include TAF

Data at: 0802 UTC 23 Jul 2018

KHUT 230752Z AUTO 05004KT 10SM CLR 23/18 A3003 RMK AO2 SLP145 T02330178 $
KHUT 230652Z AUTO 04005KT 10SM CLR 23/18 A3002 RMK AO2 SLP141 T02330183 $
KHUT 230552Z AUTO 03007KT 10SM CLR 23/19 A3002 RMK AO2 SLP143 T02330194 10306 20211 403220200 53014 $
KHUT 230452Z AUTO 07005KT 10SM 22/19 A3000 RMK AO2 SLP136 T02170189 $
KHUT 230352Z AUTO 00000KT 10SM CLR 23/18 A3001 RMK AO2 SLP139 T02330183 $
KHUT 230252Z 08005KT 10SM CLR 23/18 A2998 RMK AO2 SLP132 T02330183 53008 $
KHUT 230152Z 10005KT 10SM CLR 26/19 A2995 RMK AO2 SLP121 T02560194
KHUT 230052Z 10008KT 10SM CLR 29/18 A2995 RMK AO2 SLP118 T02890183
KHUT 222352Z 09010KT 10SM CLR 31/17 A2995 RMK AO2 SLP120 T03060167 10322 20283 56004
KHUT 222252Z 12011KT 10SM CLR 31/18 A2996 RMK AO2 SLP120 T03110183
KHUT 222152Z 09008KT 10SM CLR 32/19 A2996 RMK AO2 SLP122 T03170194
KHUT 222052Z 12010G16KT 10SM CLR 32/20 A2997 RMK AO2 SLP123 T03170200 57012
KHUT 221952Z 15009KT 10SM CLR 31/20 A2998 RMK AO2 SLP126 T03110200
KHUT 221852Z 16008KT 10SM CLR 30/19 A2999 RMK AO2 SLP131 T03000194
KHUT 221752Z 11010KT 10SM CLR 29/20 A3000 RMK AO2 SLP134 60000 T02890200 10289 20211 58004
KHUT 221652Z 11008KT 10SM CLR 26/19 A3001 RMK AO2 SLP139 T02610194
KHUT 221552Z 12007KT 10SM CLR 24/20 A3001 RMK AO2 SLP139 T02390200
KHUT 221452Z 12009KT 10SM CLR 23/19 A3001 RMK AO2 SLP141 60000 T02280194 58008
KHUT 221352Z 15008KT 10SM CLR 22/19 A3003 RMK AO2 RAB08E17 SLP146 P0000 T02170194
KHUT 221252Z 04004KT 10SM CLR 22/19 A3006 RMK AO2 SLP154 T02220189
KHUT 221152Z 06005KT 10SM CLR 21/18 A3004 RMK AO2 SLP148 60000 T02110183 10261 20200 53007
KHUT 221052Z 10004KT 10SM CLR 21/18 A3001 RMK AO2 SLP139 T02110183
KHUT 220952Z AUTO 11007KT 10SM CLR 22/19 A3001 RMK AO2 LTG DSNT SE RAB0856E12 TSE10 SLP135 P0000 T02170189
KHUT 220934Z AUTO 08009KT 10SM CLR 22/19 A3001 RMK AO2 LTG DSNT SE AND S RAB0856E12 TSE10 P0000 T02170189
KHUT 220916Z AUTO 07009KT 10SM VCTS FEW065 FEW110 22/19 A3001 RMK AO2 LTG DSNT SE AND S RAB0856E12 TSE10 P0000 T02220189
KHUT 220852Z AUTO 09008KT 10SM TS FEW065 SCT085 SCT110 23/18 A3002 RMK AO2 LTG DSNT SE AND S TSB35 SLP140 60000 T02280183 55000
KHUT 220835Z AUTO 04007KT 10SM TS FEW110 23/18 A3003 RMK AO2 LTG DSNT ALQDS TSB35 PRESRR T02330183
KHUT 220752Z AUTO 09007KT 10SM SCT100 24/17 A3001 RMK AO2 RAE01B18E37 SLP137 P0000 T02440172
KHUT 220652Z AUTO 09009KT 10SM -RA FEW055 SCT070 BKN100 25/17 A2999 RMK AO2 RAB36 SLP130 P0000 T02500172
KHUT 220552Z AUTO 06007KT 10SM CLR 26/18 A3002 RMK AO2 SLP139 T02610183 10322 20222 403390194 52011
KHUT 220452Z AUTO 04006KT 10SM CLR 27/21 A3000 RMK AO2 SLP134 T02670206
KHUT 220352Z AUTO 03006KT 10SM CLR 25/21 A3001 RMK AO2 SLP136 T02500206
KHUT 220252Z 00000KT 10SM CLR 26/21 A2999 RMK AO2 SLP130 T02560211 53001
KHUT 220152Z 00000KT 10SM CLR 27/21 A2999 RMK AO2 SLP131 T02720211
KHUT 220052Z 16006KT 10SM CLR 31/21 A2998 RMK AO2 SLP128 T03060211
KHUT 212352Z 12006KT 10SM CLR 32/21 A2998 RMK AO2 SLP130 T03220206 10339 20311 56010
KHUT 212252Z 07008KT 10SM CLR 33/19 A2999 RMK AO2 SLP130 T03330194
KHUT 212152Z VRB05KT 10SM CLR 33/20 A3001 RMK AO2 SLP136 T03330200
KHUT 212052Z 13004KT 10SM CLR 33/19 A3002 RMK AO2 SLP139 T03280194 56009